aviador You're here:

KSTP Decoded Metar

ST. PAUL in MN, USA
Report Time2018-07-20 05:53:00
UTC Time2018-07-20 06:38:18
Flight Rules mvfr MVFR
WindVRB at 04 kt
Visibility9999 m
Phenomena:N/A
Clouds:Overcast 013 Hf
Expected CloudBase > 800 ft AGL from Temp-Dew spread
Ceiling1,300 ft
Temp18°C (ISA +4)
Dew Point16°C (88% RH)
QNH1006 hPa
Density Alt1,722 ft
Elevation719 ft
Report Wrong Elevation
Raw Report
KSTP 200553Z AUTO VRB04KT 10SM OVC013 18/16 A2970 RMK AO2 SLP053
60000 T01830161 10189 20178 402280178 52002=

Extra information for KSTP:More info

Metar Taf Metar & Taf Last 4 Metars F.Rules Stats Wind Profile Meteogram Temp Stats Airport Information Weather charts Add Link Nearby VenuesMetar ALERT Operation Metar Decoded Social comments

AIRNAV info for KSTP